sensor_id;sensor_type;location;lat;lon;timestamp;pressure;altitude;pressure_sealevel;temperature;humidity
37634;BME280;32048;49.902;22.508;2022-07-12T00:01:51;98818.94;;;11.89;100.00
37634;BME280;32048;49.902;22.508;2022-07-12T00:04:18;98813.53;;;11.90;100.00
37634;BME280;32048;49.902;22.508;2022-07-12T00:06:46;98819.59;;;11.92;100.00
37634;BME280;32048;49.902;22.508;2022-07-12T00:09:13;98812.84;;;11.86;100.00
37634;BME280;32048;49.902;22.508;2022-07-12T00:11:39;98818.94;;;11.89;100.00
37634;BME280;32048;49.902;22.508;2022-07-12T00:14:08;98814.41;;;11.91;100.00
37634;BME280;32048;49.902;22.508;2022-07-12T00:16:36;98819.72;;;11.91;100.00
37634;BME280;32048;49.902;22.508;2022-07-12T00:19:03;98820.56;;;11.91;100.00
37634;BME280;32048;49.902;22.508;2022-07-12T00:21:30;98817.06;;;11.91;100.00
37634;BME280;32048;49.902;22.508;2022-07-12T00:23:57;98820.63;;;11.90;100.00
37634;BME280;32048;49.902;22.508;2022-07-12T00:26:24;98816.28;;;11.89;100.00
37634;BME280;32048;49.902;22.508;2022-07-12T00:28:51;98812.84;;;11.86;100.00
37634;BME280;32048;49.902;22.508;2022-07-12T00:31:18;98818.13;;;11.86;100.00
37634;BME280;32048;49.902;22.508;2022-07-12T00:33:45;98824.13;;;11.90;100.00
37634;BME280;32048;49.902;22.508;2022-07-12T00:36:12;98821.47;;;11.90;100.00
37634;BME280;32048;49.902;22.508;2022-07-12T00:38:39;98832.16;;;11.89;100.00
37634;BME280;32048;49.902;22.508;2022-07-12T00:41:06;98823.69;;;11.82;100.00
37634;BME280;32048;49.902;22.508;2022-07-12T00:43:33;98828.97;;;11.82;100.00
37634;BME280;32048;49.902;22.508;2022-07-12T00:46:00;98832.41;;;11.84;100.00
37634;BME280;32048;49.902;22.508;2022-07-12T00:48:27;98826.06;;;11.86;100.00
37634;BME280;32048;49.902;22.508;2022-07-12T00:50:54;98823.75;;;11.80;100.00
37634;BME280;32048;49.902;22.508;2022-07-12T00:53:21;98827.19;;;11.82;100.00
37634;BME280;32048;49.902;22.508;2022-07-12T00:55:55;98832.41;;;11.84;100.00
37634;BME280;32048;49.902;22.508;2022-07-12T00:58:24;98823.75;;;11.80;100.00
37634;BME280;32048;49.902;22.508;2022-07-12T01:00:51;98816.84;;;11.78;100.00
37634;BME280;32048;49.902;22.508;2022-07-12T01:03:18;98818.72;;;11.76;100.00
37634;BME280;32048;49.902;22.508;2022-07-12T01:05:46;98822.22;;;11.76;100.00
37634;BME280;32048;49.902;22.508;2022-07-12T01:08:14;98826.75;;;11.74;100.00
37634;BME280;32048;49.902;22.508;2022-07-12T01:10:43;98821.63;;;11.71;100.00
37634;BME280;32048;49.902;22.508;2022-07-12T01:13:11;98820.94;;;11.68;100.00
37634;BME280;32048;49.902;22.508;2022-07-12T01:15:38;98823.94;;;11.61;100.00
37634;BME280;32048;49.902;22.508;2022-07-12T01:18:06;98826.75;;;11.58;100.00
37634;BME280;32048;49.902;22.508;2022-07-12T01:20:34;98825.97;;;11.56;100.00
37634;BME280;32048;49.902;22.508;2022-07-12T01:23:02;98820.94;;;11.52;100.00
37634;BME280;32048;49.902;22.508;2022-07-12T01:25:29;98824.84;;;11.44;100.00
37634;BME280;32048;49.902;22.508;2022-07-12T01:27:57;98823.22;;;11.42;100.00
37634;BME280;32048;49.902;22.508;2022-07-12T01:30:24;98824.16;;;11.41;100.00
37634;BME280;32048;49.902;22.508;2022-07-12T01:32:51;98819.03;;;11.38;100.00
37634;BME280;32048;49.902;22.508;2022-07-12T01:35:21;98825.19;;;11.38;100.00
37634;BME280;32048;49.902;22.508;2022-07-12T01:37:48;98823.63;;;11.34;100.00
37634;BME280;32048;49.902;22.508;2022-07-12T01:40:15;98821.94;;;11.33;100.00
37634;BME280;32048;49.902;22.508;2022-07-12T01:42:43;98831.66;;;11.33;100.00
37634;BME280;32048;49.902;22.508;2022-07-12T01:45:13;98823.75;;;11.33;100.00
37634;BME280;32048;49.902;22.508;2022-07-12T01:47:40;98816.97;;;11.27;100.00
37634;BME280;32048;49.902;22.508;2022-07-12T01:50:08;98825.53;;;11.32;100.00
37634;BME280;32048;49.902;22.508;2022-07-12T01:52:38;98820.06;;;11.35;100.00
37634;BME280;32048;49.902;22.508;2022-07-12T01:55:05;98819.53;;;11.29;100.00
37634;BME280;32048;49.902;22.508;2022-07-12T01:57:32;98816.13;;;11.27;100.00
37634;BME280;32048;49.902;22.508;2022-07-12T02:00:05;98817.75;;;11.29;100.00
37634;BME280;32048;49.902;22.508;2022-07-12T02:02:34;98811.69;;;11.27;100.00
37634;BME280;32048;49.902;22.508;2022-07-12T02:05:01;98816.19;;;11.25;100.00
37634;BME280;32048;49.902;22.508;2022-07-12T02:07:30;98816.31;;;11.23;100.00
37634;BME280;32048;49.902;22.508;2022-07-12T02:09:57;98814.75;;;11.19;100.00
37634;BME280;32048;49.902;22.508;2022-07-12T02:12:24;98809.53;;;11.18;100.00
37634;BME280;32048;49.902;22.508;2022-07-12T02:14:51;98818.41;;;11.17;100.00
37634;BME280;32048;49.902;22.508;2022-07-12T02:17:19;98814.16;;;11.14;100.00
37634;BME280;32048;49.902;22.508;2022-07-12T02:19:46;98814.31;;;11.11;100.00
37634;BME280;32048;49.902;22.508;2022-07-12T02:22:12;98815.41;;;11.07;100.00
37634;BME280;32048;49.902;22.508;2022-07-12T02:24:39;98810.28;;;11.04;100.00
37634;BME280;32048;49.902;22.508;2022-07-12T02:27:07;98815.75;;;11.01;100.00
37634;BME280;32048;49.902;22.508;2022-07-12T02:29:34;98819.00;;;11.06;100.00
37634;BME280;32048;49.902;22.508;2022-07-12T02:32:03;98816.34;;;11.06;100.00
37634;BME280;32048;49.902;22.508;2022-07-12T02:34:30;98813.84;;;11.03;100.00
37634;BME280;32048;49.902;22.508;2022-07-12T02:36:57;98817.50;;;11.00;100.00
37634;BME280;32048;49.902;22.508;2022-07-12T02:39:24;98822.00;;;10.98;100.00
37634;BME280;32048;49.902;22.508;2022-07-12T02:41:51;98816.97;;;10.94;100.00
37634;BME280;32048;49.902;22.508;2022-07-12T02:44:18;98818.94;;;10.90;100.00
37634;BME280;32048;49.902;22.508;2022-07-12T02:46:45;98813.66;;;10.90;100.00
37634;BME280;32048;49.902;22.508;2022-07-12T02:49:12;98814.50;;;10.91;100.00
37634;BME280;32048;49.902;22.508;2022-07-12T02:51:39;98814.50;;;10.91;100.00
37634;BME280;32048;49.902;22.508;2022-07-12T02:54:06;98817.06;;;10.92;100.00
37634;BME280;32048;49.902;22.508;2022-07-12T02:56:32;98825.84;;;10.93;100.00
37634;BME280;32048;49.902;22.508;2022-07-12T02:58:59;98808.19;;;10.93;100.00
37634;BME280;32048;49.902;22.508;2022-07-12T03:01:26;98819.53;;;10.95;100.00
37634;BME280;32048;49.902;22.508;2022-07-12T03:03:53;98804.72;;;10.93;100.00
37634;BME280;32048;49.902;22.508;2022-07-12T03:06:20;98813.50;;;10.93;100.00
37634;BME280;32048;49.902;22.508;2022-07-12T03:08:47;98807.28;;;10.94;100.00
37634;BME280;32048;49.902;22.508;2022-07-12T03:11:14;98803.88;;;10.92;100.00
37634;BME280;32048;49.902;22.508;2022-07-12T03:13:41;98803.75;;;10.94;100.00
37634;BME280;32048;49.902;22.508;2022-07-12T03:16:08;98802.78;;;10.96;100.00
37634;BME280;32048;49.902;22.508;2022-07-12T03:18:35;98804.41;;;10.99;100.00
37634;BME280;32048;49.902;22.508;2022-07-12T03:21:02;98813.00;;;11.02;100.00
37634;BME280;32048;49.902;22.508;2022-07-12T03:23:29;98813.78;;;11.05;100.00
37634;BME280;32048;49.902;22.508;2022-07-12T03:25:56;98812.59;;;11.10;100.00
37634;BME280;32048;49.902;22.508;2022-07-12T03:28:24;98799.16;;;11.15;100.00
37634;BME280;32048;49.902;22.508;2022-07-12T03:30:52;98790.88;;;11.21;100.00
37634;BME280;32048;49.902;22.508;2022-07-12T03:33:19;98801.13;;;11.27;100.00
37634;BME280;32048;49.902;22.508;2022-07-12T03:35:46;98799.69;;;11.37;100.00
37634;BME280;32048;49.902;22.508;2022-07-12T03:38:13;98792.94;;;11.48;100.00
37634;BME280;32048;49.902;22.508;2022-07-12T03:40:40;98794.22;;;11.56;100.00
37634;BME280;32048;49.902;22.508;2022-07-12T03:43:07;98797.06;;;11.69;100.00
37634;BME280;32048;49.902;22.508;2022-07-12T03:45:34;98807.03;;;11.80;100.00
37634;BME280;32048;49.902;22.508;2022-07-12T03:48:01;98802.34;;;11.85;100.00
37634;BME280;32048;49.902;22.508;2022-07-12T03:50:28;98796.63;;;11.93;100.00
37634;BME280;32048;49.902;22.508;2022-07-12T03:52:55;98800.66;;;12.00;100.00
37634;BME280;32048;49.902;22.508;2022-07-12T03:55:22;98797.63;;;12.06;100.00
37634;BME280;32048;49.902;22.508;2022-07-12T03:57:49;98792.69;;;12.16;100.00
37634;BME280;32048;49.902;22.508;2022-07-12T04:00:16;98796.59;;;12.24;100.00
37634;BME280;32048;49.902;22.508;2022-07-12T04:02:43;98797.66;;;12.36;100.00
37634;BME280;32048;49.902;22.508;2022-07-12T04:05:11;98797.41;;;12.41;100.00
37634;BME280;32048;49.902;22.508;2022-07-12T04:07:39;98803.19;;;12.47;100.00
37634;BME280;32048;49.902;22.508;2022-07-12T04:10:07;98794.13;;;12.52;100.00
37634;BME280;32048;49.902;22.508;2022-07-12T04:12:35;98787.78;;;12.54;100.00
37634;BME280;32048;49.902;22.508;2022-07-12T04:15:03;98794.41;;;12.61;100.00
37634;BME280;32048;49.902;22.508;2022-07-12T04:17:31;98791.84;;;12.60;100.00
37634;BME280;32048;49.902;22.508;2022-07-12T04:19:58;98790.56;;;12.67;100.00
37634;BME280;32048;49.902;22.508;2022-07-12T04:22:25;98793.00;;;12.70;100.00
37634;BME280;32048;49.902;22.508;2022-07-12T04:24:52;98797.13;;;12.76;100.00
37634;BME280;32048;49.902;22.508;2022-07-12T04:27:19;98787.34;;;12.76;100.00
37634;BME280;32048;49.902;22.508;2022-07-12T04:29:46;98792.75;;;12.75;100.00
37634;BME280;32048;49.902;22.508;2022-07-12T04:32:13;98795.03;;;12.81;100.00
37634;BME280;32048;49.902;22.508;2022-07-12T04:34:40;98795.59;;;12.86;100.00
37634;BME280;32048;49.902;22.508;2022-07-12T04:37:07;98799.47;;;12.95;100.00
37634;BME280;32048;49.902;22.508;2022-07-12T04:39:33;98798.06;;;13.03;100.00
37634;BME280;32048;49.902;22.508;2022-07-12T04:42:01;98803.81;;;12.96;100.00
37634;BME280;32048;49.902;22.508;2022-07-12T04:44:28;98808.13;;;12.98;100.00
37634;BME280;32048;49.902;22.508;2022-07-12T04:46:55;98799.97;;;13.01;100.00
37634;BME280;32048;49.902;22.508;2022-07-12T04:49:21;98798.06;;;13.03;100.00
37634;BME280;32048;49.902;22.508;2022-07-12T04:51:48;98802.59;;;13.01;100.00
37634;BME280;32048;49.902;22.508;2022-07-12T04:54:15;98807.72;;;13.04;100.00
37634;BME280;32048;49.902;22.508;2022-07-12T04:56:42;98804.59;;;13.12;100.00
37634;BME280;32048;49.902;22.508;2022-07-12T04:59:10;98799.50;;;13.23;100.00
37634;BME280;32048;49.902;22.508;2022-07-12T05:01:36;98810.59;;;13.44;100.00
37634;BME280;32048;49.902;22.508;2022-07-12T05:04:04;98804.22;;;13.61;100.00
37634;BME280;32048;49.902;22.508;2022-07-12T05:06:31;98809.94;;;13.82;100.00
37634;BME280;32048;49.902;22.508;2022-07-12T05:08:58;98811.16;;;13.91;100.00
37634;BME280;32048;49.902;22.508;2022-07-12T05:11:25;98811.00;;;14.07;100.00
37634;BME280;32048;49.902;22.508;2022-07-12T05:13:52;98811.31;;;14.02;100.00
37634;BME280;32048;49.902;22.508;2022-07-12T05:16:18;98819.72;;;14.09;100.00
37634;BME280;32048;49.902;22.508;2022-07-12T05:18:46;98820.63;;;14.22;100.00
37634;BME280;32048;49.902;22.508;2022-07-12T05:21:12;98805.31;;;14.26;100.00
37634;BME280;32048;49.902;22.508;2022-07-12T05:23:39;98805.28;;;14.40;100.00
37634;BME280;32048;49.902;22.508;2022-07-12T05:26:06;98808.63;;;14.57;100.00
37634;BME280;32048;49.902;22.508;2022-07-12T05:28:41;98807.72;;;14.83;100.00
37634;BME280;32048;49.902;22.508;2022-07-12T05:31:09;98803.69;;;15.03;100.00
37634;BME280;32048;49.902;22.508;2022-07-12T05:33:36;98802.38;;;15.34;100.00
37634;BME280;32048;49.902;22.508;2022-07-12T05:36:04;98805.22;;;15.94;100.00
37634;BME280;32048;49.902;22.508;2022-07-12T05:38:31;98803.38;;;16.78;95.84
37634;BME280;32048;49.902;22.508;2022-07-12T05:40:58;98810.75;;;17.55;90.40
37634;BME280;32048;49.902;22.508;2022-07-12T05:43:25;98809.06;;;18.20;85.77
37634;BME280;32048;49.902;22.508;2022-07-12T05:45:52;98824.47;;;18.60;81.38
37634;BME280;32048;49.902;22.508;2022-07-12T05:48:19;98816.72;;;18.57;79.88
37634;BME280;32048;49.902;22.508;2022-07-12T05:50:46;98811.84;;;18.30;80.43
37634;BME280;32048;49.902;22.508;2022-07-12T05:53:13;98819.81;;;17.97;81.41
37634;BME280;32048;49.902;22.508;2022-07-12T05:55:53;98814.88;;;17.48;83.76
37634;BME280;32048;49.902;22.508;2022-07-12T05:58:21;98813.47;;;16.86;86.88
37634;BME280;32048;49.902;22.508;2022-07-12T06:00:48;98807.56;;;16.58;89.82
37634;BME280;32048;49.902;22.508;2022-07-12T06:03:16;98811.00;;;16.36;91.44
37634;BME280;32048;49.902;22.508;2022-07-12T06:05:43;98806.25;;;16.28;92.30
37634;BME280;32048;49.902;22.508;2022-07-12T06:08:10;98805.47;;;16.15;92.23
37634;BME280;32048;49.902;22.508;2022-07-12T06:10:37;98802.66;;;16.16;94.36
37634;BME280;32048;49.902;22.508;2022-07-12T06:13:04;98798.50;;;16.01;93.43
37634;BME280;32048;49.902;22.508;2022-07-12T06:15:32;98804.66;;;16.02;95.13
37634;BME280;32048;49.902;22.508;2022-07-12T06:18:00;98796.56;;;16.03;95.19
37634;BME280;32048;49.902;22.508;2022-07-12T06:20:28;98795.44;;;15.94;94.45
37634;BME280;32048;49.902;22.508;2022-07-12T06:22:55;98793.88;;;15.79;94.87
37634;BME280;32048;49.902;22.508;2022-07-12T06:25:22;98788.47;;;15.68;96.65
37634;BME280;32048;49.902;22.508;2022-07-12T06:28:09;98785.78;;;16.05;95.28
37634;BME280;32048;49.902;22.508;2022-07-12T06:30:37;98787.28;;;16.44;93.60
37634;BME280;32048;49.902;22.508;2022-07-12T06:33:04;98790.06;;;16.78;91.28
37634;BME280;32048;49.902;22.508;2022-07-12T06:35:31;98790.13;;;17.00;88.84
37634;BME280;32048;49.902;22.508;2022-07-12T06:37:58;98802.25;;;17.16;89.77
37634;BME280;32048;49.902;22.508;2022-07-12T06:40:24;98802.25;;;17.50;87.06
37634;BME280;32048;49.902;22.508;2022-07-12T06:42:52;98803.06;;;17.73;84.22
37634;BME280;32048;49.902;22.508;2022-07-12T06:45:19;98803.69;;;17.76;83.37
37634;BME280;32048;49.902;22.508;2022-07-12T06:47:46;98809.06;;;17.65;83.76
37634;BME280;32048;49.902;22.508;2022-07-12T06:50:13;98815.63;;;17.38;85.36
37634;BME280;32048;49.902;22.508;2022-07-12T06:52:40;98821.41;;;17.10;86.51
37634;BME280;32048;49.902;22.508;2022-07-12T06:55:08;98816.16;;;16.86;89.48
37634;BME280;32048;49.902;22.508;2022-07-12T06:57:35;98820.78;;;16.59;93.62
37634;BME280;32048;49.902;22.508;2022-07-12T07:00:07;98822.63;;;16.35;95.88
37634;BME280;32048;49.902;22.508;2022-07-12T07:02:34;98834.13;;;16.11;97.44
37634;BME280;32048;49.902;22.508;2022-07-12T07:05:01;98828.56;;;15.90;99.81
37634;BME280;32048;49.902;22.508;2022-07-12T07:07:28;98825.72;;;15.68;100.00
37634;BME280;32048;49.902;22.508;2022-07-12T07:09:55;98821.66;;;15.38;100.00
37634;BME280;32048;49.902;22.508;2022-07-12T07:12:22;98816.53;;;15.22;100.00
37634;BME280;32048;49.902;22.508;2022-07-12T07:14:49;98823.47;;;15.12;100.00
37634;BME280;32048;49.902;22.508;2022-07-12T07:17:17;98822.72;;;15.10;100.00
37634;BME280;32048;49.902;22.508;2022-07-12T07:19:46;98828.16;;;14.95;100.00
37634;BME280;32048;49.902;22.508;2022-07-12T07:22:13;98822.06;;;15.06;100.00
37634;BME280;32048;49.902;22.508;2022-07-12T07:24:40;98812.72;;;15.13;100.00
37634;BME280;32048;49.902;22.508;2022-07-12T07:27:07;98803.03;;;15.25;100.00
37634;BME280;32048;49.902;22.508;2022-07-12T07:29:35;98813.09;;;15.58;100.00
37634;BME280;32048;49.902;22.508;2022-07-12T07:32:21;98814.34;;;15.78;100.00
37634;BME280;32048;49.902;22.508;2022-07-12T07:34:49;98809.09;;;15.90;100.00
37634;BME280;32048;49.902;22.508;2022-07-12T07:37:16;98826.59;;;16.05;100.00
37634;BME280;32048;49.902;22.508;2022-07-12T07:39:43;98826.78;;;16.15;100.00
37634;BME280;32048;49.902;22.508;2022-07-12T07:42:10;98834.03;;;16.13;100.00
37634;BME280;32048;49.902;22.508;2022-07-12T07:44:37;98833.06;;;16.14;100.00
37634;BME280;32048;49.902;22.508;2022-07-12T07:47:24;98830.88;;;16.08;100.00
37634;BME280;32048;49.902;22.508;2022-07-12T07:49:54;98828.91;;;16.10;100.00
37634;BME280;32048;49.902;22.508;2022-07-12T07:52:21;98823.66;;;15.97;100.00
37634;BME280;32048;49.902;22.508;2022-07-12T07:54:48;98830.06;;;15.94;100.00
37634;BME280;32048;49.902;22.508;2022-07-12T07:57:15;98825.50;;;16.32;100.00
37634;BME280;32048;49.902;22.508;2022-07-12T07:59:42;98825.56;;;17.48;100.00
37634;BME280;32048;49.902;22.508;2022-07-12T08:02:11;98820.88;;;18.82;99.89
37634;BME280;32048;49.902;22.508;2022-07-12T08:04:38;98817.69;;;19.49;87.84
37634;BME280;32048;49.902;22.508;2022-07-12T08:07:05;98821.44;;;20.28;84.06
37634;BME280;32048;49.902;22.508;2022-07-12T08:09:32;98814.97;;;20.50;78.15
37634;BME280;32048;49.902;22.508;2022-07-12T08:11:59;98820.31;;;20.21;78.42
37634;BME280;32048;49.902;22.508;2022-07-12T08:14:26;98823.72;;;19.72;78.60
37634;BME280;32048;49.902;22.508;2022-07-12T08:16:53;98824.63;;;19.00;81.77
37634;BME280;32048;49.902;22.508;2022-07-12T08:19:20;98829.03;;;18.48;84.99
37634;BME280;32048;49.902;22.508;2022-07-12T08:21:47;98825.72;;;18.23;85.75
37634;BME280;32048;49.902;22.508;2022-07-12T08:24:14;98822.31;;;18.21;87.90
37634;BME280;32048;49.902;22.508;2022-07-12T08:26:41;98815.31;;;18.41;85.08
37634;BME280;32048;49.902;22.508;2022-07-12T08:29:08;98816.06;;;18.85;86.81
37634;BME280;32048;49.902;22.508;2022-07-12T08:31:35;98811.50;;;19.49;84.19
37634;BME280;32048;49.902;22.508;2022-07-12T08:34:03;98819.56;;;19.99;78.25
37634;BME280;32048;49.902;22.508;2022-07-12T08:36:30;98820.81;;;19.95;76.90
37634;BME280;32048;49.902;22.508;2022-07-12T08:39:00;98818.72;;;19.99;78.77
37634;BME280;32048;49.902;22.508;2022-07-12T08:41:26;98810.84;;;20.07;77.91
37634;BME280;32048;49.902;22.508;2022-07-12T08:43:54;98809.38;;;19.83;76.78
37634;BME280;32048;49.902;22.508;2022-07-12T08:46:21;98817.66;;;19.70;78.81
37634;BME280;32048;49.902;22.508;2022-07-12T08:48:48;98806.81;;;19.41;79.61
37634;BME280;32048;49.902;22.508;2022-07-12T08:51:20;98789.56;;;19.24;82.84
37634;BME280;32048;49.902;22.508;2022-07-12T08:54:04;98801.28;;;19.02;82.56
37634;BME280;32048;49.902;22.508;2022-07-12T08:56:37;98807.41;;;18.93;82.45
37634;BME280;32048;49.902;22.508;2022-07-12T08:59:16;98804.38;;;19.07;84.72
37634;BME280;32048;49.902;22.508;2022-07-12T09:01:51;98798.41;;;19.25;82.59
37634;BME280;32048;49.902;22.508;2022-07-12T09:04:23;98802.34;;;19.51;78.80
37634;BME280;32048;49.902;22.508;2022-07-12T09:06:51;98794.63;;;19.68;78.35
37634;BME280;32048;49.902;22.508;2022-07-12T09:09:31;98798.00;;;20.10;73.52
37634;BME280;32048;49.902;22.508;2022-07-12T09:11:58;98796.56;;;21.04;75.22
37634;BME280;32048;49.902;22.508;2022-07-12T09:14:25;98797.38;;;21.89;67.90
37634;BME280;32048;49.902;22.508;2022-07-12T09:17:06;98789.75;;;22.30;66.22
37634;BME280;32048;49.902;22.508;2022-07-12T09:19:37;98793.22;;;22.84;63.12
37634;BME280;32048;49.902;22.508;2022-07-12T09:22:05;98791.63;;;23.43;58.42
37634;BME280;32048;49.902;22.508;2022-07-12T09:24:40;98799.63;;;24.12;55.59
37634;BME280;32048;49.902;22.508;2022-07-12T09:27:07;98794.66;;;24.50;54.34
37634;BME280;32048;49.902;22.508;2022-07-12T09:29:46;98785.69;;;24.90;53.90
37634;BME280;32048;49.902;22.508;2022-07-12T09:32:13;98782.09;;;25.31;49.10
37634;BME280;32048;49.902;22.508;2022-07-12T09:35:00;98789.03;;;25.17;49.04
37634;BME280;32048;49.902;22.508;2022-07-12T09:37:45;98789.41;;;24.98;49.13
37634;BME280;32048;49.902;22.508;2022-07-12T09:40:14;98777.94;;;24.87;49.19
37634;BME280;32048;49.902;22.508;2022-07-12T09:42:41;98784.31;;;24.45;48.21
37634;BME280;32048;49.902;22.508;2022-07-12T09:45:09;98794.59;;;23.32;51.19
37634;BME280;32048;49.902;22.508;2022-07-12T09:47:37;98793.22;;;21.94;57.93
37634;BME280;32048;49.902;22.508;2022-07-12T09:50:04;98794.06;;;20.73;63.93
37634;BME280;32048;49.902;22.508;2022-07-12T09:52:36;98801.09;;;19.96;69.01
37634;BME280;32048;49.902;22.508;2022-07-12T09:55:04;98789.69;;;20.13;69.40
37634;BME280;32048;49.902;22.508;2022-07-12T09:57:40;98788.16;;;20.79;65.74
37634;BME280;32048;49.902;22.508;2022-07-12T10:00:08;98786.44;;;21.35;63.59
37634;BME280;32048;49.902;22.508;2022-07-12T10:02:39;98776.31;;;21.84;61.57
37634;BME280;32048;49.902;22.508;2022-07-12T10:05:08;98772.31;;;22.06;59.80
37634;BME280;32048;49.902;22.508;2022-07-12T10:07:37;98765.81;;;22.09;57.13
37634;BME280;32048;49.902;22.508;2022-07-12T10:10:05;98775.69;;;22.36;54.32
37634;BME280;32048;49.902;22.508;2022-07-12T10:12:33;98764.34;;;22.68;53.85
37634;BME280;32048;49.902;22.508;2022-07-12T10:15:03;98768.22;;;22.92;55.09
37634;BME280;32048;49.902;22.508;2022-07-12T10:17:32;98752.03;;;23.44;52.02
37634;BME280;32048;49.902;22.508;2022-07-12T10:22:42;98752.06;;;24.03;50.02
37634;BME280;32048;49.902;22.508;2022-07-12T10:27:52;98751.00;;;23.88;48.54
37634;BME280;32048;49.902;22.508;2022-07-12T10:30:22;98753.25;;;24.17;48.27
37634;BME280;32048;49.902;22.508;2022-07-12T10:32:59;98750.41;;;24.43;47.25
37634;BME280;32048;49.902;22.508;2022-07-12T10:35:30;98752.44;;;24.24;47.72
37634;BME280;32048;49.902;22.508;2022-07-12T10:38:17;98736.25;;;24.24;47.18
37634;BME280;32048;49.902;22.508;2022-07-12T10:40:46;98741.16;;;24.70;47.24
37634;BME280;32048;49.902;22.508;2022-07-12T10:43:17;98732.03;;;24.38;45.16
37634;BME280;32048;49.902;22.508;2022-07-12T10:45:45;98730.50;;;24.19;46.80
37634;BME280;32048;49.902;22.508;2022-07-12T10:53:35;98732.34;;;25.48;44.97
37634;BME280;32048;49.902;22.508;2022-07-12T10:56:12;98734.84;;;25.58;43.13
37634;BME280;32048;49.902;22.508;2022-07-12T11:01:22;98734.41;;;24.66;44.40
37634;BME280;32048;49.902;22.508;2022-07-12T11:03:54;98735.09;;;24.60;47.45
37634;BME280;32048;49.902;22.508;2022-07-12T11:06:23;98726.97;;;24.84;46.17
37634;BME280;32048;49.902;22.508;2022-07-12T11:08:57;98729.31;;;24.79;45.55
37634;BME280;32048;49.902;22.508;2022-07-12T11:11:32;98730.28;;;23.96;47.61
37634;BME280;32048;49.902;22.508;2022-07-12T11:14:00;98719.03;;;23.50;47.83
37634;BME280;32048;49.902;22.508;2022-07-12T11:16:29;98714.34;;;23.52;48.67
37634;BME280;32048;49.902;22.508;2022-07-12T11:18:57;98724.38;;;23.84;48.69
37634;BME280;32048;49.902;22.508;2022-07-12T11:21:25;98711.09;;;23.49;47.41
37634;BME280;32048;49.902;22.508;2022-07-12T11:23:52;98707.81;;;22.68;50.56
37634;BME280;32048;49.902;22.508;2022-07-12T11:26:19;98751.72;;;21.79;53.18
37634;BME280;32048;49.902;22.508;2022-07-12T11:28:46;98748.41;;;20.92;52.46
37634;BME280;32048;49.902;22.508;2022-07-12T11:31:18;98743.78;;;20.75;53.02
37634;BME280;32048;49.902;22.508;2022-07-12T11:33:47;98764.13;;;20.77;53.44
37634;BME280;32048;49.902;22.508;2022-07-12T11:36:15;98777.78;;;20.94;55.62
37634;BME280;32048;49.902;22.508;2022-07-12T11:38:44;98783.44;;;20.91;59.69
37634;BME280;32048;49.902;22.508;2022-07-12T11:41:13;98769.22;;;20.71;62.88
37634;BME280;32048;49.902;22.508;2022-07-12T11:43:41;98763.56;;;20.35;64.51
37634;BME280;32048;49.902;22.508;2022-07-12T11:46:09;98751.31;;;20.23;65.72
37634;BME280;32048;49.902;22.508;2022-07-12T11:48:36;98749.59;;;20.22;66.62
37634;BME280;32048;49.902;22.508;2022-07-12T11:51:06;98742.97;;;20.45;68.39
37634;BME280;32048;49.902;22.508;2022-07-12T11:53:34;98735.13;;;20.91;67.71
37634;BME280;32048;49.902;22.508;2022-07-12T11:56:03;98725.47;;;21.45;64.69
37634;BME280;32048;49.902;22.508;2022-07-12T11:58:31;98720.47;;;22.14;62.78
37634;BME280;32048;49.902;22.508;2022-07-12T12:01:09;98722.91;;;22.87;56.68
37634;BME280;32048;49.902;22.508;2022-07-12T12:03:44;98715.16;;;23.53;54.51
37634;BME280;32048;49.902;22.508;2022-07-12T12:06:12;98721.84;;;23.83;49.75
37634;BME280;32048;49.902;22.508;2022-07-12T12:08:40;98717.72;;;23.54;49.36
37634;BME280;32048;49.902;22.508;2022-07-12T12:11:07;98718.34;;;23.06;49.62
37634;BME280;32048;49.902;22.508;2022-07-12T12:13:34;98716.56;;;22.70;51.95
37634;BME280;32048;49.902;22.508;2022-07-12T12:16:03;98711.91;;;22.54;54.03
37634;BME280;32048;49.902;22.508;2022-07-12T12:18:38;98706.75;;;22.61;54.85
37634;BME280;32048;49.902;22.508;2022-07-12T12:21:10;98713.34;;;22.67;53.79
37634;BME280;32048;49.902;22.508;2022-07-12T12:23:40;98702.41;;;22.68;52.37
37634;BME280;32048;49.902;22.508;2022-07-12T12:26:15;98709.03;;;22.12;54.85
37634;BME280;32048;49.902;22.508;2022-07-12T12:28:53;98708.66;;;21.89;57.26
37634;BME280;32048;49.902;22.508;2022-07-12T12:31:22;98717.41;;;21.91;56.81
37634;BME280;32048;49.902;22.508;2022-07-12T12:33:52;98711.81;;;22.02;55.39
37634;BME280;32048;49.902;22.508;2022-07-12T12:38:50;98708.19;;;21.93;54.50
37634;BME280;32048;49.902;22.508;2022-07-12T12:41:18;98710.25;;;22.17;55.23
37634;BME280;32048;49.902;22.508;2022-07-12T12:44:00;98699.34;;;22.37;55.31
37634;BME280;32048;49.902;22.508;2022-07-12T12:49:12;98707.38;;;22.29;54.03
37634;BME280;32048;49.902;22.508;2022-07-12T12:51:56;98700.63;;;22.15;53.84
37634;BME280;32048;49.902;22.508;2022-07-12T12:54:36;98700.03;;;22.03;55.02
37634;BME280;32048;49.902;22.508;2022-07-12T12:57:06;98702.81;;;21.93;54.78
37634;BME280;32048;49.902;22.508;2022-07-12T12:59:48;98699.78;;;21.78;55.74
37634;BME280;32048;49.902;22.508;2022-07-12T13:02:30;98703.75;;;21.56;56.84
37634;BME280;32048;49.902;22.508;2022-07-12T13:04:57;98692.31;;;21.54;58.11
37634;BME280;32048;49.902;22.508;2022-07-12T13:07:24;98690.56;;;21.63;57.71
37634;BME280;32048;49.902;22.508;2022-07-12T13:09:51;98692.66;;;21.87;57.54
37634;BME280;32048;49.902;22.508;2022-07-12T13:12:18;98685.50;;;22.14;55.67